METAR Data
IDs: Format: Raw Decoded Include TAF

Data at: 1337 UTC 19 Feb 2020

METAR for:KDCA (Washington/National, VA, US)
Text:KDCA 191252Z 32010KT 10SM BKN090 07/M03 A3031 RMK AO2 SLP262 T00721033
Temperature: 7.2°C ( 45°F)
Dewpoint: -3.3°C ( 26°F) [RH = 47%]
Pressure (altimeter):30.31 inches Hg (1026.5 mb) [Sea level pressure: 1026.2 mb]
Winds:from the NW (320 degrees) at 12 MPH (10 knots; 5.1 m/s)
Visibility:10 or more sm (16+ km)
Ceiling:9000 feet AGL
Clouds: broken clouds at 9000 feet AGL

METAR for:KIAD (Washington/Dulles In, VA, US)
Text:KIAD 191252Z 35005KT 10SM BKN100 BKN220 05/M04 A3031 RMK AO2 SLP264 T00501039
Temperature: 5.0°C ( 41°F)
Dewpoint: -3.9°C ( 25°F) [RH = 52%]
Pressure (altimeter):30.31 inches Hg (1026.5 mb) [Sea level pressure: 1026.4 mb]
Winds:from the N (350 degrees) at 6 MPH (5 knots; 2.6 m/s)
Visibility:10 or more sm (16+ km)
Ceiling:10000 feet AGL
Clouds: broken clouds at 10000 feet AGL, broken clouds at 22000 feet AGL

METAR for:KBWI (Baltimore-Washington, MD, US)
Text:KBWI 191254Z 30010G15KT 10SM BKN100 BKN250 06/M05 A3028 RMK AO2 SLP253 T00611050
Temperature: 6.1°C ( 43°F)
Dewpoint: -5.0°C ( 23°F) [RH = 45%]
Pressure (altimeter):30.28 inches Hg (1025.5 mb) [Sea level pressure: 1025.3 mb]
Winds:from the WNW (300 degrees) at 12 MPH (10 knots; 5.1 m/s) gusting to 17 MPH (15 knots; 7.7 m/s)
Visibility:10 or more sm (16+ km)
Ceiling:10000 feet AGL
Clouds: broken clouds at 10000 feet AGL, broken clouds at 25000 feet AGL

METAR for:KMTN (Baltimore/Martin Sta, MD, US)
Text:KMTN 191254Z 30009KT 10SM BKN100 06/M02 A3030
Temperature: 6.0°C ( 43°F)
Dewpoint: -2.0°C ( 28°F) [RH = 56%]
Pressure (altimeter):30.30 inches Hg (1026.2 mb)
Winds:from the WNW (300 degrees) at 10 MPH (9 knots; 4.6 m/s)
Visibility:10 or more sm (16+ km)
Ceiling:10000 feet AGL
Clouds: broken clouds at 10000 feet AGL

METAR for:KCHO (Charlottesville/Albe, VA, US)
Text:KCHO 191253Z 34005KT 10SM OVC085 09/M03 A3027 RMK AO2 SLP250 T00891028
Temperature: 8.9°C ( 48°F)
Dewpoint: -2.8°C ( 27°F) [RH = 44%]
Pressure (altimeter):30.27 inches Hg (1025.1 mb) [Sea level pressure: 1025.0 mb]
Winds:from the NNW (340 degrees) at 6 MPH (5 knots; 2.6 m/s)
Visibility:10 or more sm (16+ km)
Ceiling:8500 feet AGL
Clouds: overcast cloud deck at 8500 feet AGL

METAR for:KMRB (Martinsburg/E West V, WV, US)
Text:KMRB 191253Z 31010KT 10SM CLR 03/M06 A3029 RMK AO2 SLP261 T00281056
Temperature: 2.8°C ( 37°F)
Dewpoint: -5.6°C ( 22°F) [RH = 54%]
Pressure (altimeter):30.29 inches Hg (1025.8 mb) [Sea level pressure: 1026.1 mb]
Winds:from the NW (310 degrees) at 12 MPH (10 knots; 5.1 m/s)
Visibility:10 or more sm (16+ km)
Ceiling:at least 12,000 feet AGL
Clouds:sky clear below 12,000 feet AGL